createdAt,value
2019-04-11T00:01:50.041Z,9.60
2019-04-11T00:04:18.048Z,9.70
2019-04-11T00:06:47.859Z,9.60
2019-04-11T00:09:18.774Z,9.60
2019-04-11T00:11:48.312Z,9.50
2019-04-11T00:14:17.946Z,9.40
2019-04-11T00:16:47.687Z,9.30
2019-04-11T00:19:36.129Z,9.40
2019-04-11T00:22:05.702Z,9.50
2019-04-11T00:24:35.211Z,9.30
2019-04-11T00:27:04.659Z,9.40
2019-04-11T00:29:34.431Z,9.30
2019-04-11T00:32:06.532Z,9.40
2019-04-11T00:34:35.224Z,9.40
2019-04-11T00:37:05.133Z,9.40
2019-04-11T00:39:35.398Z,9.40
2019-04-11T00:42:04.735Z,9.20
2019-04-11T00:44:34.752Z,9.10
2019-04-11T00:47:04.770Z,9.00
2019-04-11T00:49:34.679Z,9.00
2019-04-11T00:52:04.566Z,9.00
2019-04-11T00:54:35.172Z,9.20
2019-04-11T00:57:04.475Z,9.20
2019-04-11T00:59:34.174Z,9.10
2019-04-11T01:02:03.456Z,9.20
2019-04-11T01:04:32.865Z,9.00
2019-04-11T01:07:02.715Z,8.90
2019-04-11T01:09:32.641Z,8.80
2019-04-11T01:12:02.637Z,8.90
2019-04-11T01:14:32.075Z,8.90
2019-04-11T01:17:01.378Z,9.00
2019-04-11T01:19:30.973Z,8.70
2019-04-11T01:22:01.226Z,8.60
2019-04-11T01:24:31.510Z,8.80
2019-04-11T01:27:01.449Z,8.90
2019-04-11T01:29:31.402Z,8.90
2019-04-11T01:32:04.685Z,8.70
2019-04-11T01:34:34.978Z,8.70
2019-04-11T01:37:04.542Z,8.60
2019-04-11T01:39:41.214Z,8.60
2019-04-11T01:42:11.137Z,8.60
2019-04-11T01:44:40.974Z,8.60
2019-04-11T01:47:13.001Z,8.50
2019-04-11T01:49:42.451Z,8.50
2019-04-11T01:52:11.920Z,8.40
2019-04-11T01:54:41.141Z,8.20
2019-04-11T01:57:10.305Z,8.20
2019-04-11T01:59:39.662Z,8.20
2019-04-11T02:02:37.077Z,8.20
2019-04-11T02:05:43.229Z,8.10
2019-04-11T02:08:33.897Z,8.10
2019-04-11T02:11:03.392Z,7.90
2019-04-11T02:13:32.724Z,7.70
2019-04-11T02:16:02.943Z,7.90
2019-04-11T02:18:32.323Z,7.80
2019-04-11T02:21:01.455Z,7.80
2019-04-11T02:23:53.151Z,7.60
2019-04-11T02:26:29.362Z,7.80
2019-04-11T02:28:59.366Z,7.60
2019-04-11T02:31:30.416Z,7.50
2019-04-11T02:34:01.734Z,7.40
2019-04-11T02:36:32.166Z,7.30
2019-04-11T02:39:06.257Z,7.10
2019-04-11T02:41:35.147Z,7.00
2019-04-11T02:44:07.307Z,7.00
2019-04-11T02:46:43.643Z,7.30
2019-04-11T02:49:07.711Z,7.20
2019-04-11T02:51:38.716Z,7.20
2019-04-11T02:54:08.127Z,7.20
2019-04-11T02:56:37.857Z,7.30
2019-04-11T02:59:08.893Z,7.30
2019-04-11T03:01:39.725Z,7.50
2019-04-11T03:04:10.462Z,7.40
2019-04-11T03:06:41.734Z,7.30
2019-04-11T03:09:11.023Z,7.10
2019-04-11T03:11:40.885Z,7.00
2019-04-11T03:14:14.150Z,6.90
2019-04-11T03:16:56.727Z,7.10
2019-04-11T03:19:37.462Z,7.00
2019-04-11T03:22:05.714Z,7.10
2019-04-11T03:24:42.746Z,6.90
2019-04-11T03:27:11.982Z,6.80
2019-04-11T03:29:42.958Z,6.80
2019-04-11T03:33:07.282Z,6.50
2019-04-11T03:35:51.824Z,6.50
2019-04-11T03:37:39.681Z,6.40
2019-04-11T03:40:04.531Z,6.20
2019-04-11T03:42:35.205Z,6.00
2019-04-11T03:45:11.387Z,6.10
2019-04-11T03:47:31.933Z,5.80
2019-04-11T03:49:58.771Z,5.80
2019-04-11T03:52:23.732Z,5.70
2019-04-11T03:54:54.022Z,5.70
2019-04-11T03:57:25.492Z,5.70
2019-04-11T03:59:56.471Z,5.60
2019-04-11T04:02:26.166Z,5.70
2019-04-11T04:04:56.799Z,5.20
2019-04-11T04:07:27.739Z,5.00
2019-04-11T04:09:58.497Z,4.90
2019-04-11T04:12:29.343Z,5.00
2019-04-11T04:15:32.591Z,4.90
2019-04-11T04:18:06.540Z,4.90
2019-04-11T04:20:48.923Z,5.20
2019-04-11T04:23:24.902Z,5.10
2019-04-11T04:25:54.615Z,4.90
2019-04-11T04:28:24.571Z,4.80
2019-04-11T04:30:54.477Z,5.00
2019-04-11T04:33:23.876Z,4.80
2019-04-11T04:35:53.254Z,5.00
2019-04-11T04:38:24.052Z,4.90
2019-04-11T04:41:13.489Z,4.60
2019-04-11T04:43:29.571Z,4.70
2019-04-11T04:46:17.335Z,4.80
2019-04-11T04:48:31.550Z,5.00
2019-04-11T04:51:06.238Z,5.20
2019-04-11T04:53:33.049Z,4.80
2019-04-11T04:56:03.166Z,4.80
2019-04-11T04:58:33.921Z,5.00
2019-04-11T05:01:05.761Z,4.70
2019-04-11T05:03:34.708Z,4.80
2019-04-11T05:06:04.328Z,5.00
2019-04-11T05:08:34.753Z,4.80
2019-04-11T05:11:04.650Z,4.80
2019-04-11T05:13:34.470Z,4.90
2019-04-11T05:16:12.873Z,4.90
2019-04-11T05:18:36.410Z,4.90
2019-04-11T05:21:05.803Z,5.20
2019-04-11T05:23:34.980Z,4.90
2019-04-11T05:26:04.149Z,5.00
2019-04-11T05:28:33.334Z,4.80
2019-04-11T05:31:02.649Z,5.00
2019-04-11T05:33:31.888Z,5.00
2019-04-11T05:36:01.124Z,5.10
2019-04-11T05:38:30.273Z,5.00
2019-04-11T05:40:59.511Z,5.10
2019-04-11T05:43:31.977Z,5.10
2019-04-11T05:46:00.272Z,5.40
2019-04-11T05:48:42.968Z,5.20
2019-04-11T05:51:13.052Z,5.30
2019-04-11T05:53:43.704Z,5.30
2019-04-11T05:56:16.103Z,5.50
2019-04-11T05:58:46.999Z,5.80
2019-04-11T06:01:27.361Z,5.90
2019-04-11T06:03:59.079Z,5.80
2019-04-11T06:06:41.806Z,5.70
2019-04-11T06:09:16.276Z,6.20
2019-04-11T06:12:05.293Z,6.30
2019-04-11T06:14:39.721Z,6.60
2019-04-11T06:17:11.888Z,7.30
2019-04-11T06:19:59.053Z,7.60
2019-04-11T06:22:28.320Z,7.90
2019-04-11T06:25:18.799Z,7.90
2019-04-11T06:28:04.278Z,8.40
2019-04-11T06:30:55.229Z,8.10
2019-04-11T06:33:33.077Z,8.30
2019-04-11T06:36:23.769Z,8.60
2019-04-11T06:39:12.729Z,8.80
2019-04-11T06:42:17.164Z,8.90
2019-04-11T06:44:58.514Z,9.20
2019-04-11T06:48:05.385Z,9.40
2019-04-11T06:50:43.871Z,9.40
2019-04-11T06:53:16.736Z,9.50
2019-04-11T06:56:04.928Z,9.40
2019-04-11T06:58:56.721Z,9.40
2019-04-11T07:01:28.064Z,9.40
2019-04-11T07:04:07.154Z,9.80
2019-04-11T07:06:39.765Z,9.80
2019-04-11T07:09:28.782Z,10.30
2019-04-11T07:12:03.523Z,10.70
2019-04-11T07:15:04.511Z,10.80
2019-04-11T07:17:52.536Z,11.50
2019-04-11T07:20:54.128Z,11.60
2019-04-11T07:23:43.934Z,12.90
2019-04-11T07:26:37.375Z,13.30
2019-04-11T07:29:25.774Z,13.70
2019-04-11T07:32:13.567Z,14.40
2019-04-11T07:35:02.259Z,15.30
2019-04-11T07:37:36.776Z,16.00
2019-04-11T07:40:29.472Z,15.80
2019-04-11T07:43:18.992Z,15.80
2019-04-11T07:46:19.903Z,14.60
2019-04-11T07:48:50.467Z,14.40
2019-04-11T07:51:27.606Z,13.40
2019-04-11T07:54:00.288Z,12.60
2019-04-11T07:56:35.174Z,11.80
2019-04-11T07:59:07.619Z,11.50
2019-04-11T08:01:52.722Z,11.20
2019-04-11T08:04:41.232Z,11.90
2019-04-11T08:07:28.234Z,12.30
2019-04-11T08:10:05.914Z,12.70
2019-04-11T08:12:35.638Z,12.80
2019-04-11T08:15:37.682Z,13.00
2019-04-11T08:18:18.650Z,13.00
2019-04-11T08:21:07.954Z,13.30
2019-04-11T08:23:38.047Z,13.20
2019-04-11T08:26:26.179Z,13.30
2019-04-11T08:29:06.571Z,13.20
2019-04-11T08:31:57.729Z,13.00
2019-04-11T08:34:31.166Z,13.10
2019-04-11T08:37:31.709Z,13.20
2019-04-11T08:40:01.845Z,13.50
2019-04-11T08:42:59.000Z,13.70
2019-04-11T08:45:29.744Z,13.70
2019-04-11T08:48:02.406Z,13.80
2019-04-11T08:50:34.846Z,14.00
2019-04-11T08:53:18.668Z,14.10
2019-04-11T08:56:02.102Z,14.10
2019-04-11T08:58:49.036Z,14.00
2019-04-11T09:01:20.122Z,14.10
2019-04-11T09:04:10.268Z,13.70
2019-04-11T09:06:39.153Z,13.60
2019-04-11T09:09:27.292Z,13.80
2019-04-11T09:12:00.413Z,14.00
2019-04-11T09:15:00.737Z,14.20
2019-04-11T09:17:34.456Z,14.40
2019-04-11T09:20:27.548Z,14.50
2019-04-11T09:23:01.714Z,14.60
2019-04-11T09:25:51.603Z,14.90
2019-04-11T09:28:47.269Z,15.10
2019-04-11T09:31:41.845Z,14.70
2019-04-11T09:34:30.268Z,15.10
2019-04-11T09:37:23.216Z,15.20
2019-04-11T09:40:17.399Z,15.10
2019-04-11T09:42:53.495Z,15.30
2019-04-11T09:45:47.992Z,15.30
2019-04-11T09:48:42.428Z,15.50
2019-04-11T09:51:33.773Z,15.60
2019-04-11T09:54:21.210Z,15.80
2019-04-11T09:57:08.299Z,15.80
2019-04-11T09:59:56.052Z,15.70
2019-04-11T10:03:02.915Z,15.80
2019-04-11T10:05:44.708Z,15.50
2019-04-11T10:08:35.233Z,15.60
2019-04-11T10:11:26.112Z,15.60
2019-04-11T10:14:07.240Z,15.80
2019-04-11T10:16:54.242Z,15.70
2019-04-11T10:19:58.035Z,15.80
2019-04-11T10:22:49.164Z,16.00
2019-04-11T10:25:28.829Z,16.10
2019-04-11T10:28:30.356Z,16.30
2019-04-11T10:31:04.664Z,16.20
2019-04-11T10:34:06.048Z,16.00
2019-04-11T10:36:55.707Z,16.30
2019-04-11T10:40:00.078Z,15.90
2019-04-11T10:42:30.759Z,15.80
2019-04-11T10:45:25.338Z,15.80
2019-04-11T10:48:05.505Z,15.70
2019-04-11T10:50:46.649Z,15.90
2019-04-11T10:53:16.674Z,16.20
2019-04-11T10:56:08.699Z,16.00
2019-04-11T10:58:53.454Z,16.00
2019-04-11T11:01:40.245Z,15.40
2019-04-11T11:04:13.675Z,15.80
2019-04-11T11:06:44.914Z,15.90
2019-04-11T11:09:32.339Z,15.90
2019-04-11T11:12:23.706Z,16.20
2019-04-11T11:15:13.474Z,16.60
2019-04-11T11:18:31.978Z,17.10
2019-04-11T11:20:49.425Z,17.20
2019-04-11T11:23:35.262Z,17.40
2019-04-11T11:26:27.744Z,16.60
2019-04-11T11:29:07.318Z,16.70
2019-04-11T11:31:45.815Z,16.80
2019-04-11T11:34:24.929Z,17.10
2019-04-11T11:37:14.022Z,17.20
2019-04-11T11:40:04.933Z,17.40
2019-04-11T11:43:00.987Z,17.20
2019-04-11T11:45:51.758Z,18.20
2019-04-11T11:48:50.738Z,17.60
2019-04-11T11:51:35.297Z,17.80
2019-04-11T11:54:11.595Z,18.20
2019-04-11T11:56:42.452Z,17.60
2019-04-11T11:59:15.311Z,17.50
2019-04-11T12:01:51.434Z,16.50
2019-04-11T12:04:40.172Z,16.90
2019-04-11T12:07:12.531Z,17.70
2019-04-11T12:10:19.566Z,18.10
2019-04-11T12:12:58.088Z,18.70
2019-04-11T12:15:51.177Z,19.30
2019-04-11T12:18:51.861Z,19.40
2019-04-11T12:21:26.390Z,20.30
2019-04-11T12:24:32.431Z,19.20
2019-04-11T12:27:24.539Z,19.00
2019-04-11T12:30:13.410Z,19.60
2019-04-11T12:33:01.742Z,20.50
2019-04-11T12:35:50.794Z,20.50
2019-04-11T12:38:45.412Z,21.20
2019-04-11T12:41:25.159Z,20.90
2019-04-11T12:44:12.196Z,21.10
2019-04-11T12:46:59.421Z,22.10
2019-04-11T12:49:38.569Z,22.10
2019-04-11T12:52:33.556Z,22.00
2019-04-11T12:55:02.781Z,21.70
2019-04-11T12:57:51.197Z,23.60
2019-04-11T13:00:39.414Z,24.20
2019-04-11T13:03:26.273Z,24.90
2019-04-11T13:05:59.147Z,25.30
2019-04-11T13:08:59.651Z,25.40
2019-04-11T13:11:28.823Z,25.70
2019-04-11T13:14:09.112Z,24.40
2019-04-11T13:16:38.702Z,24.30
2019-04-11T13:19:21.455Z,25.10
2019-04-11T13:21:56.808Z,24.40
2019-04-11T13:24:48.178Z,23.50
2019-04-11T13:27:22.753Z,21.60
2019-04-11T13:30:14.088Z,20.50
2019-04-11T13:32:55.142Z,19.30
2019-04-11T13:35:42.003Z,19.10
2019-04-11T13:38:14.369Z,19.20
2019-04-11T13:41:02.566Z,18.60
2019-04-11T13:43:47.757Z,18.90
2019-04-11T13:46:48.272Z,18.70
2019-04-11T13:49:52.009Z,17.90
2019-04-11T13:52:40.236Z,18.20
2019-04-11T13:55:11.701Z,17.70
2019-04-11T13:57:59.902Z,17.60
2019-04-11T14:00:57.402Z,17.80
2019-04-11T14:03:46.859Z,17.30
2019-04-11T14:06:39.792Z,17.80
2019-04-11T14:09:38.124Z,18.00
2019-04-11T14:12:14.283Z,17.80
2019-04-11T14:15:05.930Z,17.40
2019-04-11T14:17:52.428Z,17.10
2019-04-11T14:20:31.520Z,16.20
2019-04-11T14:23:23.136Z,16.20
2019-04-11T14:26:10.410Z,16.30
2019-04-11T14:28:45.485Z,16.30
2019-04-11T14:31:33.711Z,16.10
2019-04-11T14:34:08.832Z,16.40
2019-04-11T14:36:55.673Z,16.30
2019-04-11T14:39:26.668Z,16.30
2019-04-11T14:42:15.079Z,16.30
2019-04-11T14:44:44.903Z,16.30
2019-04-11T14:47:48.456Z,16.20
2019-04-11T14:50:19.321Z,16.10
2019-04-11T14:53:02.850Z,15.70
2019-04-11T14:55:36.768Z,15.80
2019-04-11T14:58:30.948Z,15.70
2019-04-11T15:01:01.072Z,15.70
2019-04-11T15:03:44.246Z,15.60
2019-04-11T15:06:21.069Z,15.60
2019-04-11T15:09:08.395Z,15.60
2019-04-11T15:11:49.599Z,15.40
2019-04-11T15:14:56.167Z,15.40
2019-04-11T15:17:33.831Z,15.50
2019-04-11T15:20:28.383Z,15.50
2019-04-11T15:23:06.708Z,15.30
2019-04-11T15:25:55.265Z,15.30
2019-04-11T15:28:37.100Z,15.30
2019-04-11T15:31:39.154Z,15.20
2019-04-11T15:34:24.099Z,15.20
2019-04-11T15:37:12.394Z,15.00
2019-04-11T15:40:06.680Z,15.10
2019-04-11T15:43:01.028Z,14.90
2019-04-11T15:45:48.008Z,14.60
2019-04-11T15:48:51.669Z,14.60
2019-04-11T15:51:42.169Z,14.70
2019-04-11T15:54:34.887Z,14.70
2019-04-11T15:57:26.994Z,14.60
2019-04-11T16:00:30.897Z,14.60
2019-04-11T16:03:06.068Z,14.60
2019-04-11T16:05:53.144Z,14.50
2019-04-11T16:08:26.586Z,14.40
2019-04-11T16:11:23.997Z,14.40
2019-04-11T16:14:18.422Z,14.40
2019-04-11T16:17:21.745Z,14.40
2019-04-11T16:19:53.102Z,14.30
2019-04-11T16:22:43.146Z,14.40
2019-04-11T16:25:17.434Z,14.40
2019-04-11T16:28:11.697Z,14.40
2019-04-11T16:30:46.352Z,14.20
2019-04-11T16:33:26.458Z,14.20
2019-04-11T16:36:08.573Z,14.10
2019-04-11T16:38:56.784Z,13.90
2019-04-11T16:41:44.058Z,14.00
2019-04-11T16:44:18.483Z,13.80
2019-04-11T16:47:08.183Z,13.70
2019-04-11T16:49:36.576Z,13.70
2019-04-11T16:52:08.252Z,13.70
2019-04-11T16:54:39.790Z,13.50
2019-04-11T16:57:07.738Z,13.50
2019-04-11T16:59:37.018Z,13.60
2019-04-11T17:02:06.389Z,13.60
2019-04-11T17:04:35.632Z,13.60
2019-04-11T17:07:18.020Z,13.50
2019-04-11T17:09:47.809Z,13.50
2019-04-11T17:12:17.226Z,13.50
2019-04-11T17:14:46.485Z,13.50
2019-04-11T17:17:15.872Z,13.50
2019-04-11T17:19:45.068Z,13.40
2019-04-11T17:22:16.767Z,13.30
2019-04-11T17:24:47.601Z,13.40
2019-04-11T17:27:16.277Z,13.20
2019-04-11T17:29:45.468Z,13.20
2019-04-11T17:32:14.775Z,13.30
2019-04-11T17:34:44.064Z,13.20
2019-04-11T17:37:13.251Z,13.10
2019-04-11T17:39:42.386Z,12.90
2019-04-11T17:42:13.382Z,12.90
2019-04-11T17:44:42.476Z,12.90
2019-04-11T17:47:11.660Z,13.00
2019-04-11T17:49:40.959Z,13.00
2019-04-11T17:52:10.287Z,12.80
2019-04-11T17:54:39.475Z,12.60
2019-04-11T17:57:08.620Z,12.60
2019-04-11T17:59:37.787Z,12.50
2019-04-11T18:02:10.423Z,12.40
2019-04-11T18:04:44.093Z,12.10
2019-04-11T18:07:10.505Z,12.10
2019-04-11T18:09:39.705Z,12.20
2019-04-11T18:12:09.273Z,11.90
2019-04-11T18:14:38.474Z,11.60
2019-04-11T18:17:07.659Z,11.70
2019-04-11T18:19:37.145Z,11.50
2019-04-11T18:22:08.033Z,11.30
2019-04-11T18:24:37.861Z,11.40
2019-04-11T18:27:07.006Z,11.40
2019-04-11T18:29:36.286Z,11.20
2019-04-11T18:32:05.884Z,11.00
2019-04-11T18:34:35.137Z,10.80
2019-04-11T18:37:04.374Z,10.40
2019-04-11T18:39:35.790Z,10.40
2019-04-11T18:42:04.464Z,10.20
2019-04-11T18:44:33.857Z,10.20
2019-04-11T18:47:03.001Z,10.30
2019-04-11T18:49:32.255Z,10.20
2019-04-11T18:52:01.625Z,10.30
2019-04-11T18:54:30.960Z,10.30
2019-04-11T18:57:00.323Z,10.50
2019-04-11T18:59:33.691Z,10.30
2019-04-11T19:02:00.581Z,10.00
2019-04-11T19:04:32.553Z,10.00
2019-04-11T19:07:00.729Z,9.90
2019-04-11T19:09:30.663Z,9.50
2019-04-11T19:11:59.873Z,9.60
2019-04-11T19:14:29.025Z,9.60
2019-04-11T19:16:58.216Z,9.80
2019-04-11T19:19:27.705Z,9.80
2019-04-11T19:21:57.113Z,9.80
2019-04-11T19:24:35.071Z,9.90
2019-04-11T19:26:57.366Z,9.90
2019-04-11T19:29:26.742Z,9.90
2019-04-11T19:31:56.085Z,9.60
2019-04-11T19:34:25.305Z,9.50
2019-04-11T19:36:54.607Z,9.60
2019-04-11T19:39:23.780Z,9.90
2019-04-11T19:41:53.110Z,9.80
2019-04-11T19:44:22.326Z,9.80
2019-04-11T19:46:51.707Z,9.90
2019-04-11T19:49:21.128Z,9.50
2019-04-11T19:51:50.982Z,9.60
2019-04-11T19:54:20.309Z,9.40
2019-04-11T19:57:08.132Z,9.40
2019-04-11T19:59:37.378Z,9.40
2019-04-11T20:02:06.640Z,9.40
2019-04-11T20:04:35.787Z,9.30
2019-04-11T20:07:05.055Z,9.50
2019-04-11T20:09:34.218Z,9.30
2019-04-11T20:12:03.467Z,9.60
2019-04-11T20:14:34.805Z,9.40
2019-04-11T20:17:03.645Z,9.40
2019-04-11T20:19:32.852Z,9.10
2019-04-11T20:22:02.003Z,9.00
2019-04-11T20:24:32.953Z,9.20
2019-04-11T20:27:02.177Z,9.20
2019-04-11T20:29:33.421Z,9.20
2019-04-11T20:32:02.648Z,9.40
2019-04-11T20:34:31.892Z,9.50
2019-04-11T20:37:01.112Z,9.70
2019-04-11T20:39:30.317Z,9.70
2019-04-11T20:41:59.459Z,9.70
2019-04-11T20:44:28.644Z,9.80
2019-04-11T20:47:00.143Z,9.60
2019-04-11T20:49:28.813Z,9.40
2019-04-11T20:51:58.020Z,9.40
2019-04-11T20:54:27.201Z,9.30
2019-04-11T20:56:56.424Z,9.30
2019-04-11T20:59:34.581Z,9.30
2019-04-11T21:01:57.068Z,9.40
2019-04-11T21:04:26.325Z,9.40
2019-04-11T21:06:55.628Z,9.40
2019-04-11T21:09:24.839Z,9.30
2019-04-11T21:11:54.020Z,9.40
2019-04-11T21:14:23.280Z,9.20
2019-04-11T21:16:52.437Z,9.30
2019-04-11T21:19:23.245Z,9.40
2019-04-11T21:21:53.282Z,9.30
2019-04-11T21:24:23.380Z,9.10
2019-04-11T21:26:52.574Z,8.90
2019-04-11T21:29:21.827Z,8.90
2019-04-11T21:31:51.286Z,8.90
2019-04-11T21:34:20.565Z,8.90
2019-04-11T21:36:49.721Z,8.80
2019-04-11T21:39:18.855Z,8.90
2019-04-11T21:41:48.094Z,8.70
2019-04-11T21:44:17.248Z,8.70
2019-04-11T21:46:49.125Z,8.80
2019-04-11T21:49:17.295Z,8.70
2019-04-11T21:51:46.643Z,8.60
2019-04-11T21:54:15.797Z,8.50
2019-04-11T21:56:49.280Z,8.50
2019-04-11T21:59:20.114Z,8.50
2019-04-11T22:01:46.919Z,8.40
2019-04-11T22:04:16.122Z,8.40
2019-04-11T22:06:45.505Z,8.40
2019-04-11T22:09:14.757Z,8.20
2019-04-11T22:11:43.932Z,8.30
2019-04-11T22:14:13.368Z,8.30
2019-04-11T22:16:45.101Z,8.20
2019-04-11T22:19:14.301Z,8.20
2019-04-11T22:21:45.388Z,8.10
2019-04-11T22:24:15.510Z,8.10
2019-04-11T22:26:44.807Z,7.90
2019-04-11T22:29:14.158Z,7.90
2019-04-11T22:31:45.338Z,7.80
2019-04-11T22:34:39.857Z,7.90
2019-04-11T22:37:09.063Z,8.00
2019-04-11T22:39:38.406Z,8.00
2019-04-11T22:42:07.564Z,8.00
2019-04-11T22:44:38.012Z,8.10
2019-04-11T22:47:08.113Z,8.00
2019-04-11T22:49:39.368Z,8.00
2019-04-11T22:52:11.441Z,7.80
2019-04-11T22:54:41.244Z,7.60
2019-04-11T22:57:12.120Z,7.60
2019-04-11T22:59:44.060Z,7.60
2019-04-11T23:02:21.009Z,7.60
2019-04-11T23:04:50.162Z,7.60
2019-04-11T23:07:19.302Z,7.50
2019-04-11T23:09:49.071Z,7.60
2019-04-11T23:12:18.809Z,7.60
2019-04-11T23:14:48.052Z,7.40
2019-04-11T23:17:17.267Z,7.30
2019-04-11T23:19:46.403Z,7.20
2019-04-11T23:22:15.953Z,7.20
2019-04-11T23:24:45.144Z,7.20
2019-04-11T23:27:14.272Z,7.00
2019-04-11T23:29:44.717Z,7.00
2019-04-11T23:32:14.336Z,7.20
2019-04-11T23:34:43.545Z,7.20
2019-04-11T23:37:12.679Z,7.30
2019-04-11T23:39:41.844Z,7.40
2019-04-11T23:42:10.987Z,7.30
2019-04-11T23:44:40.144Z,7.40
2019-04-11T23:47:09.293Z,7.30
2019-04-11T23:49:38.461Z,7.10
2019-04-11T23:52:07.600Z,7.20
2019-04-11T23:54:36.751Z,7.30
2019-04-11T23:57:05.951Z,7.10
2019-04-11T23:59:35.124Z,6.90
